Overview Statistics Trail Chart Weather Telemetry Raw packets
 

This is the latest recevied weather packets stored in our database for station/object K6CED. If no packets are shown the sender has not sent any weather packets the latest 10 day(s).

<< 44 45 46 47 48 49 50 >>
Time Temp. Humidity Pressure Rain* Wind** Luminosity Snow
1788371183 25.56° C 43% 1019 hPa 0 mm - 717 W/m² -
1788370879 25.56° C 43% 1018.9 hPa 0 mm - 701 W/m² -
1788370574 25° C 48% 1018.9 hPa 0 mm - 684 W/m² -
1788370269 25° C 48% 1018.9 hPa 0 mm - 669 W/m² -
1788369968 25° C 49% 1019 hPa 0 mm - 656 W/m² -
1788369663 23.89° C 51% 1019 hPa 0 mm - 643 W/m² -
1788369359 23.33° C 53% 1019.4 hPa 0 mm - 636 W/m² -
1788369054 23.89° C 52% 1019 hPa 0 mm - 619 W/m² -
1788368749 23.33° C 54% 1019.1 hPa 0 mm - 601 W/m² -
1788368446 22.78° C 54% 1019 hPa 0 mm - 584 W/m² -
1788368145 23.33° C 54% 1019.1 hPa 0 mm - 570 W/m² -
1788367839 22.22° C 56% 1019.2 hPa 0 mm - 555 W/m² -
1788367529 21.67° C 56% 1019 hPa 0 mm - 539 W/m² -
1788367228 22.78° C 54% 1019.2 hPa 0 mm - 519 W/m² -
1788366924 22.22° C 55% 1019 hPa 0 mm - 505 W/m² -
1788366621 21.67° C 58% 1019.1 hPa 0 mm - 496 W/m² -
1788366316 20.56° C 62% 1019 hPa 0 mm - 493 W/m² -
1788366011 21.11° C 61% 1019.4 hPa 0 mm - 490 W/m² -
1788365706 20.56° C 61% 1019.2 hPa 0 mm - 482 W/m² -
1788365402 20.56° C 63% 1019.1 hPa 0 mm - 472 W/m² -
1788365098 20.56° C 62% 1019.1 hPa 0 mm - 454 W/m² -
1788364795 20° C 63% 1019 hPa 0 mm - 436 W/m² -
1788364491 20° C 62% 1019.2 hPa 0 mm - 414 W/m² -
1788364184 19.44° C 64% 1018.9 hPa 0 mm - 136 W/m² -
1788363880 20° C 63% 1019.3 hPa 0 mm - 377 W/m² -

* Rain latest hour (hover to see other rain measurements)
** Current wind speed in m/s (hover to see current wind gust speed)